sensor_id;sensor_type;location;lat;lon;timestamp;temperature;humidity
19224;DHT22;9746;47.180;9.776;2023-10-08T00:01:09;13.10;99.90
19224;DHT22;9746;47.180;9.776;2023-10-08T00:03:42;13.10;99.90
19224;DHT22;9746;47.180;9.776;2023-10-08T00:06:14;13.00;99.90
19224;DHT22;9746;47.180;9.776;2023-10-08T00:08:42;12.80;99.90
19224;DHT22;9746;47.180;9.776;2023-10-08T00:11:09;12.80;99.90
19224;DHT22;9746;47.180;9.776;2023-10-08T00:13:38;12.80;99.90
19224;DHT22;9746;47.180;9.776;2023-10-08T00:16:08;12.80;99.90
19224;DHT22;9746;47.180;9.776;2023-10-08T00:18:53;12.80;99.90
19224;DHT22;9746;47.180;9.776;2023-10-08T00:21:26;12.70;99.90
19224;DHT22;9746;47.180;9.776;2023-10-08T00:23:53;12.70;99.90
19224;DHT22;9746;47.180;9.776;2023-10-08T00:26:24;12.60;99.90
19224;DHT22;9746;47.180;9.776;2023-10-08T00:28:59;12.60;99.90
19224;DHT22;9746;47.180;9.776;2023-10-08T00:31:28;12.50;99.90
19224;DHT22;9746;47.180;9.776;2023-10-08T00:34:09;12.30;99.90
19224;DHT22;9746;47.180;9.776;2023-10-08T00:36:39;12.20;99.90
19224;DHT22;9746;47.180;9.776;2023-10-08T00:39:19;12.00;99.90
19224;DHT22;9746;47.180;9.776;2023-10-08T00:41:51;12.00;99.90
19224;DHT22;9746;47.180;9.776;2023-10-08T00:44:24;12.00;99.90
19224;DHT22;9746;47.180;9.776;2023-10-08T00:46:57;12.00;99.90
19224;DHT22;9746;47.180;9.776;2023-10-08T00:49:27;12.20;99.90
19224;DHT22;9746;47.180;9.776;2023-10-08T00:52:26;12.20;99.90
19224;DHT22;9746;47.180;9.776;2023-10-08T00:54:56;12.20;99.90
19224;DHT22;9746;47.180;9.776;2023-10-08T00:57:45;12.10;99.90
19224;DHT22;9746;47.180;9.776;2023-10-08T01:00:15;12.10;99.90
19224;DHT22;9746;47.180;9.776;2023-10-08T01:06:05;12.10;99.90
19224;DHT22;9746;47.180;9.776;2023-10-08T01:09:01;12.20;99.90
19224;DHT22;9746;47.180;9.776;2023-10-08T01:11:43;12.30;99.90
19224;DHT22;9746;47.180;9.776;2023-10-08T01:14:31;12.40;99.90
19224;DHT22;9746;47.180;9.776;2023-10-08T01:16:58;12.40;99.90
19224;DHT22;9746;47.180;9.776;2023-10-08T01:22:43;12.30;99.90
19224;DHT22;9746;47.180;9.776;2023-10-08T01:25:10;12.30;99.90
19224;DHT22;9746;47.180;9.776;2023-10-08T01:27:57;12.20;99.90
19224;DHT22;9746;47.180;9.776;2023-10-08T01:30:27;12.20;99.90
19224;DHT22;9746;47.180;9.776;2023-10-08T01:33:09;12.20;99.90
19224;DHT22;9746;47.180;9.776;2023-10-08T01:35:39;12.20;99.90
19224;DHT22;9746;47.180;9.776;2023-10-08T01:38:20;12.20;99.90
19224;DHT22;9746;47.180;9.776;2023-10-08T01:40:49;12.10;99.90
19224;DHT22;9746;47.180;9.776;2023-10-08T01:43:18;12.10;99.90
19224;DHT22;9746;47.180;9.776;2023-10-08T01:45:46;12.00;99.90
19224;DHT22;9746;47.180;9.776;2023-10-08T01:48:28;11.90;99.90
19224;DHT22;9746;47.180;9.776;2023-10-08T01:51:02;11.90;99.90
19224;DHT22;9746;47.180;9.776;2023-10-08T01:53:56;11.80;99.90
19224;DHT22;9746;47.180;9.776;2023-10-08T01:56:24;11.70;99.90
19224;DHT22;9746;47.180;9.776;2023-10-08T01:59:21;11.60;99.90
19224;DHT22;9746;47.180;9.776;2023-10-08T02:01:50;11.60;99.90
19224;DHT22;9746;47.180;9.776;2023-10-08T02:07:35;11.50;99.90
19224;DHT22;9746;47.180;9.776;2023-10-08T02:10:05;11.40;99.90
19224;DHT22;9746;47.180;9.776;2023-10-08T02:12:33;11.30;99.90
19224;DHT22;9746;47.180;9.776;2023-10-08T02:15:01;11.30;99.90
19224;DHT22;9746;47.180;9.776;2023-10-08T02:17:29;11.30;99.90
19224;DHT22;9746;47.180;9.776;2023-10-08T02:20:12;11.30;99.90
19224;DHT22;9746;47.180;9.776;2023-10-08T02:22:56;11.20;99.90
19224;DHT22;9746;47.180;9.776;2023-10-08T02:25:27;11.20;99.90
19224;DHT22;9746;47.180;9.776;2023-10-08T02:31:06;11.20;99.90
19224;DHT22;9746;47.180;9.776;2023-10-08T02:33:48;11.20;99.90
19224;DHT22;9746;47.180;9.776;2023-10-08T02:36:16;11.20;99.90
19224;DHT22;9746;47.180;9.776;2023-10-08T02:38:46;11.20;99.90
19224;DHT22;9746;47.180;9.776;2023-10-08T02:41:17;11.20;99.90
19224;DHT22;9746;47.180;9.776;2023-10-08T02:43:46;11.20;99.90
19224;DHT22;9746;47.180;9.776;2023-10-08T02:46:14;11.20;99.90
19224;DHT22;9746;47.180;9.776;2023-10-08T02:51:39;11.20;99.90
19224;DHT22;9746;47.180;9.776;2023-10-08T02:54:19;11.20;99.90
19224;DHT22;9746;47.180;9.776;2023-10-08T02:56:51;11.30;99.90
19224;DHT22;9746;47.180;9.776;2023-10-08T03:02:20;11.50;99.90
19224;DHT22;9746;47.180;9.776;2023-10-08T03:08:09;11.50;99.90
19224;DHT22;9746;47.180;9.776;2023-10-08T03:10:38;11.50;99.90
19224;DHT22;9746;47.180;9.776;2023-10-08T03:16:18;11.50;99.90
19224;DHT22;9746;47.180;9.776;2023-10-08T03:19:11;11.50;99.90
19224;DHT22;9746;47.180;9.776;2023-10-08T03:21:44;11.50;99.90
19224;DHT22;9746;47.180;9.776;2023-10-08T03:24:24;11.50;99.90
19224;DHT22;9746;47.180;9.776;2023-10-08T03:27:04;11.70;99.90
19224;DHT22;9746;47.180;9.776;2023-10-08T03:32:50;12.30;99.90
19224;DHT22;9746;47.180;9.776;2023-10-08T03:35:39;12.60;99.90
19224;DHT22;9746;47.180;9.776;2023-10-08T03:38:09;12.80;99.90
19224;DHT22;9746;47.180;9.776;2023-10-08T03:40:47;13.00;99.90
19224;DHT22;9746;47.180;9.776;2023-10-08T03:43:32;13.10;99.90
19224;DHT22;9746;47.180;9.776;2023-10-08T03:46:13;13.20;99.90
19224;DHT22;9746;47.180;9.776;2023-10-08T03:52:05;13.10;99.90
19224;DHT22;9746;47.180;9.776;2023-10-08T03:54:45;13.40;99.90
19224;DHT22;9746;47.180;9.776;2023-10-08T03:57:29;13.50;99.90
19224;DHT22;9746;47.180;9.776;2023-10-08T04:06:56;13.10;99.90
19224;DHT22;9746;47.180;9.776;2023-10-08T04:10:07;13.00;99.90
19224;DHT22;9746;47.180;9.776;2023-10-08T04:13:15;12.90;99.90
19224;DHT22;9746;47.180;9.776;2023-10-08T04:19:04;12.90;99.90
19224;DHT22;9746;47.180;9.776;2023-10-08T04:21:31;12.90;99.90
19224;DHT22;9746;47.180;9.776;2023-10-08T04:24:16;12.80;99.90
19224;DHT22;9746;47.180;9.776;2023-10-08T04:26:47;12.90;99.90
19224;DHT22;9746;47.180;9.776;2023-10-08T04:29:39;12.80;99.90
19224;DHT22;9746;47.180;9.776;2023-10-08T04:32:08;12.80;99.90
19224;DHT22;9746;47.180;9.776;2023-10-08T04:34:56;12.80;99.90
19224;DHT22;9746;47.180;9.776;2023-10-08T04:37:24;12.60;99.90
19224;DHT22;9746;47.180;9.776;2023-10-08T04:40:11;12.60;99.90
19224;DHT22;9746;47.180;9.776;2023-10-08T04:42:43;12.50;99.90
19224;DHT22;9746;47.180;9.776;2023-10-08T04:48:19;12.30;99.90
19224;DHT22;9746;47.180;9.776;2023-10-08T04:51:15;12.20;99.90
19224;DHT22;9746;47.180;9.776;2023-10-08T04:56:57;11.90;99.90
19224;DHT22;9746;47.180;9.776;2023-10-08T04:59:43;11.70;99.90
19224;DHT22;9746;47.180;9.776;2023-10-08T05:02:13;11.60;99.90
19224;DHT22;9746;47.180;9.776;2023-10-08T05:04:55;11.60;99.90
19224;DHT22;9746;47.180;9.776;2023-10-08T05:07:48;11.60;99.90
19224;DHT22;9746;47.180;9.776;2023-10-08T05:14:10;11.60;99.90
19224;DHT22;9746;47.180;9.776;2023-10-08T05:16:55;11.50;99.90
19224;DHT22;9746;47.180;9.776;2023-10-08T05:22:45;11.40;99.90
19224;DHT22;9746;47.180;9.776;2023-10-08T05:29:03;11.40;99.90
19224;DHT22;9746;47.180;9.776;2023-10-08T05:31:50;11.30;99.90
19224;DHT22;9746;47.180;9.776;2023-10-08T05:37:46;11.00;99.90
19224;DHT22;9746;47.180;9.776;2023-10-08T05:40:40;11.00;99.90
19224;DHT22;9746;47.180;9.776;2023-10-08T05:43:25;10.90;99.90
19224;DHT22;9746;47.180;9.776;2023-10-08T05:46:25;10.90;99.90
19224;DHT22;9746;47.180;9.776;2023-10-08T05:49:21;10.90;99.90
19224;DHT22;9746;47.180;9.776;2023-10-08T05:52:20;10.80;99.90
19224;DHT22;9746;47.180;9.776;2023-10-08T05:55:28;10.80;99.90
19224;DHT22;9746;47.180;9.776;2023-10-08T05:58:03;10.90;99.90
19224;DHT22;9746;47.180;9.776;2023-10-08T06:00:59;10.80;99.90
19224;DHT22;9746;47.180;9.776;2023-10-08T06:03:35;10.70;99.90
19224;DHT22;9746;47.180;9.776;2023-10-08T06:06:13;10.70;99.90
19224;DHT22;9746;47.180;9.776;2023-10-08T06:08:52;10.80;99.90
19224;DHT22;9746;47.180;9.776;2023-10-08T06:18:34;11.00;99.90
19224;DHT22;9746;47.180;9.776;2023-10-08T06:24:22;11.30;99.90
19224;DHT22;9746;47.180;9.776;2023-10-08T06:26:52;11.30;99.90
19224;DHT22;9746;47.180;9.776;2023-10-08T06:29:21;11.40;99.90
19224;DHT22;9746;47.180;9.776;2023-10-08T06:31:56;11.50;99.90
19224;DHT22;9746;47.180;9.776;2023-10-08T06:34:31;11.50;99.90
19224;DHT22;9746;47.180;9.776;2023-10-08T06:36:59;11.50;99.90
19224;DHT22;9746;47.180;9.776;2023-10-08T06:39:45;11.60;99.90
19224;DHT22;9746;47.180;9.776;2023-10-08T06:42:14;11.60;99.90
19224;DHT22;9746;47.180;9.776;2023-10-08T06:45:10;11.70;99.90
19224;DHT22;9746;47.180;9.776;2023-10-08T06:47:40;11.70;99.90
19224;DHT22;9746;47.180;9.776;2023-10-08T06:50:12;11.70;99.90
19224;DHT22;9746;47.180;9.776;2023-10-08T06:52:41;11.80;99.90
19224;DHT22;9746;47.180;9.776;2023-10-08T06:55:10;11.80;99.90
19224;DHT22;9746;47.180;9.776;2023-10-08T06:57:39;11.90;99.90
19224;DHT22;9746;47.180;9.776;2023-10-08T07:00:14;12.10;99.90
19224;DHT22;9746;47.180;9.776;2023-10-08T07:03:01;12.40;99.90
19224;DHT22;9746;47.180;9.776;2023-10-08T07:05:42;12.50;99.90
19224;DHT22;9746;47.180;9.776;2023-10-08T07:08:11;12.50;99.90
19224;DHT22;9746;47.180;9.776;2023-10-08T07:14:03;12.60;99.90
19224;DHT22;9746;47.180;9.776;2023-10-08T07:16:31;12.60;99.90
19224;DHT22;9746;47.180;9.776;2023-10-08T07:18:58;12.80;99.90
19224;DHT22;9746;47.180;9.776;2023-10-08T07:24:54;12.80;99.90
19224;DHT22;9746;47.180;9.776;2023-10-08T07:27:23;12.90;99.90
19224;DHT22;9746;47.180;9.776;2023-10-08T07:32:52;13.00;99.90
19224;DHT22;9746;47.180;9.776;2023-10-08T07:35:31;13.10;99.90
19224;DHT22;9746;47.180;9.776;2023-10-08T07:38:05;13.20;99.90
19224;DHT22;9746;47.180;9.776;2023-10-08T07:41:02;13.30;99.90
19224;DHT22;9746;47.180;9.776;2023-10-08T07:43:31;13.40;99.90
19224;DHT22;9746;47.180;9.776;2023-10-08T07:45:59;13.50;99.90
19224;DHT22;9746;47.180;9.776;2023-10-08T07:48:29;13.60;99.90
19224;DHT22;9746;47.180;9.776;2023-10-08T07:50:58;13.80;99.90
19224;DHT22;9746;47.180;9.776;2023-10-08T07:53:26;14.00;99.90
19224;DHT22;9746;47.180;9.776;2023-10-08T07:56:06;14.20;99.90
19224;DHT22;9746;47.180;9.776;2023-10-08T07:58:34;14.50;99.90
19224;DHT22;9746;47.180;9.776;2023-10-08T08:01:04;14.70;99.90
19224;DHT22;9746;47.180;9.776;2023-10-08T08:03:32;14.90;99.90
19224;DHT22;9746;47.180;9.776;2023-10-08T08:06:18;15.10;99.90
19224;DHT22;9746;47.180;9.776;2023-10-08T08:08:45;15.50;99.90
19224;DHT22;9746;47.180;9.776;2023-10-08T08:11:23;15.70;99.90
19224;DHT22;9746;47.180;9.776;2023-10-08T08:13:52;16.00;99.90
19224;DHT22;9746;47.180;9.776;2023-10-08T08:16:19;16.20;99.90
19224;DHT22;9746;47.180;9.776;2023-10-08T08:18:48;16.40;99.90
19224;DHT22;9746;47.180;9.776;2023-10-08T08:21:24;16.60;99.90
19224;DHT22;9746;47.180;9.776;2023-10-08T08:23:56;16.90;99.90
19224;DHT22;9746;47.180;9.776;2023-10-08T08:29:51;17.60;99.90
19224;DHT22;9746;47.180;9.776;2023-10-08T08:36:00;18.40;99.90
19224;DHT22;9746;47.180;9.776;2023-10-08T08:38:28;18.80;99.90
19224;DHT22;9746;47.180;9.776;2023-10-08T08:41:10;19.20;99.90
19224;DHT22;9746;47.180;9.776;2023-10-08T08:43:39;19.60;99.90
19224;DHT22;9746;47.180;9.776;2023-10-08T08:49:36;20.10;99.90
19224;DHT22;9746;47.180;9.776;2023-10-08T08:52:21;20.60;99.90
19224;DHT22;9746;47.180;9.776;2023-10-08T08:54:48;21.20;99.90
19224;DHT22;9746;47.180;9.776;2023-10-08T08:57:52;21.40;99.90
19224;DHT22;9746;47.180;9.776;2023-10-08T09:00:21;21.70;99.90
19224;DHT22;9746;47.180;9.776;2023-10-08T09:02:54;22.00;99.90
19224;DHT22;9746;47.180;9.776;2023-10-08T09:05:26;22.30;99.90
19224;DHT22;9746;47.180;9.776;2023-10-08T09:08:01;22.50;99.90
19224;DHT22;9746;47.180;9.776;2023-10-08T09:13:53;23.10;99.90
19224;DHT22;9746;47.180;9.776;2023-10-08T09:16:20;23.30;99.90
19224;DHT22;9746;47.180;9.776;2023-10-08T09:18:49;23.40;99.90
19224;DHT22;9746;47.180;9.776;2023-10-08T09:24:48;23.90;99.90
19224;DHT22;9746;47.180;9.776;2023-10-08T09:30:29;24.40;99.90
19224;DHT22;9746;47.180;9.776;2023-10-08T09:36:19;24.80;99.90
19224;DHT22;9746;47.180;9.776;2023-10-08T09:38:46;25.10;99.90
19224;DHT22;9746;47.180;9.776;2023-10-08T09:44:39;25.70;99.90
19224;DHT22;9746;47.180;9.776;2023-10-08T09:50:32;26.20;99.90
19224;DHT22;9746;47.180;9.776;2023-10-08T09:59:49;26.90;99.90
19224;DHT22;9746;47.180;9.776;2023-10-08T10:05:38;27.40;99.90
19224;DHT22;9746;47.180;9.776;2023-10-08T10:11:29;27.50;99.90
19224;DHT22;9746;47.180;9.776;2023-10-08T10:13:59;27.50;99.90
19224;DHT22;9746;47.180;9.776;2023-10-08T10:19:55;27.70;99.90
19224;DHT22;9746;47.180;9.776;2023-10-08T10:25:47;27.70;99.90
19224;DHT22;9746;47.180;9.776;2023-10-08T10:31:36;28.10;99.90
19224;DHT22;9746;47.180;9.776;2023-10-08T10:34:05;28.20;99.90
19224;DHT22;9746;47.180;9.776;2023-10-08T10:43:44;28.10;99.90
19224;DHT22;9746;47.180;9.776;2023-10-08T10:46:21;28.20;99.90
19224;DHT22;9746;47.180;9.776;2023-10-08T10:48:56;28.00;99.90
19224;DHT22;9746;47.180;9.776;2023-10-08T10:51:47;28.00;99.90
19224;DHT22;9746;47.180;9.776;2023-10-08T10:54:16;27.90;99.90
19224;DHT22;9746;47.180;9.776;2023-10-08T10:56:59;28.00;99.90
19224;DHT22;9746;47.180;9.776;2023-10-08T10:59:32;27.90;99.90
19224;DHT22;9746;47.180;9.776;2023-10-08T11:05:08;27.70;99.90
19224;DHT22;9746;47.180;9.776;2023-10-08T11:08:12;27.90;99.90
19224;DHT22;9746;47.180;9.776;2023-10-08T11:10:42;28.00;99.90
19224;DHT22;9746;47.180;9.776;2023-10-08T11:13:19;28.30;99.90
19224;DHT22;9746;47.180;9.776;2023-10-08T11:15:52;28.60;99.90
19224;DHT22;9746;47.180;9.776;2023-10-08T11:18:25;29.00;99.90
19224;DHT22;9746;47.180;9.776;2023-10-08T11:21:05;29.40;99.90
19224;DHT22;9746;47.180;9.776;2023-10-08T11:23:42;30.00;99.90
19224;DHT22;9746;47.180;9.776;2023-10-08T11:26:12;30.30;99.90
19224;DHT22;9746;47.180;9.776;2023-10-08T11:28:58;30.30;99.90
19224;DHT22;9746;47.180;9.776;2023-10-08T11:31:29;30.30;99.90
19224;DHT22;9746;47.180;9.776;2023-10-08T11:34:00;30.20;99.90
19224;DHT22;9746;47.180;9.776;2023-10-08T11:36:30;30.10;99.90
19224;DHT22;9746;47.180;9.776;2023-10-08T11:39:10;30.10;99.90
19224;DHT22;9746;47.180;9.776;2023-10-08T11:41:59;29.90;99.90
19224;DHT22;9746;47.180;9.776;2023-10-08T11:44:31;29.80;99.90
19224;DHT22;9746;47.180;9.776;2023-10-08T11:47:12;29.70;99.90
19224;DHT22;9746;47.180;9.776;2023-10-08T11:49:47;29.90;99.90
19224;DHT22;9746;47.180;9.776;2023-10-08T11:52:17;30.30;99.90
19224;DHT22;9746;47.180;9.776;2023-10-08T11:54:47;30.80;99.90
19224;DHT22;9746;47.180;9.776;2023-10-08T11:57:38;31.70;99.90
19224;DHT22;9746;47.180;9.776;2023-10-08T12:00:12;32.40;99.90
19224;DHT22;9746;47.180;9.776;2023-10-08T12:02:51;32.60;99.90
19224;DHT22;9746;47.180;9.776;2023-10-08T12:05:20;32.70;99.90
19224;DHT22;9746;47.180;9.776;2023-10-08T12:08:06;33.00;99.90
19224;DHT22;9746;47.180;9.776;2023-10-08T12:10:34;33.00;99.90
19224;DHT22;9746;47.180;9.776;2023-10-08T12:13:01;33.00;99.90
19224;DHT22;9746;47.180;9.776;2023-10-08T12:15:31;32.90;99.90
19224;DHT22;9746;47.180;9.776;2023-10-08T12:18:17;32.70;99.90
19224;DHT22;9746;47.180;9.776;2023-10-08T12:20:51;32.50;99.90
19224;DHT22;9746;47.180;9.776;2023-10-08T12:23:31;32.00;99.90
19224;DHT22;9746;47.180;9.776;2023-10-08T12:25:59;31.80;99.90
19224;DHT22;9746;47.180;9.776;2023-10-08T12:28:35;31.80;99.90
19224;DHT22;9746;47.180;9.776;2023-10-08T12:31:03;31.80;99.90
19224;DHT22;9746;47.180;9.776;2023-10-08T12:33:36;31.60;99.90
19224;DHT22;9746;47.180;9.776;2023-10-08T12:36:04;31.50;99.90
19224;DHT22;9746;47.180;9.776;2023-10-08T12:38:46;30.90;99.90
19224;DHT22;9746;47.180;9.776;2023-10-08T12:41:13;30.20;99.90
19224;DHT22;9746;47.180;9.776;2023-10-08T12:44:07;30.00;99.90
19224;DHT22;9746;47.180;9.776;2023-10-08T12:46:34;29.80;99.90
19224;DHT22;9746;47.180;9.776;2023-10-08T12:49:09;29.50;99.90
19224;DHT22;9746;47.180;9.776;2023-10-08T12:51:36;29.20;99.90
19224;DHT22;9746;47.180;9.776;2023-10-08T12:54:24;29.10;99.90
19224;DHT22;9746;47.180;9.776;2023-10-08T12:56:55;29.10;99.90
19224;DHT22;9746;47.180;9.776;2023-10-08T12:59:24;29.10;99.90
19224;DHT22;9746;47.180;9.776;2023-10-08T13:01:53;29.20;99.90
19224;DHT22;9746;47.180;9.776;2023-10-08T13:04:24;29.00;99.90
19224;DHT22;9746;47.180;9.776;2023-10-08T13:06:54;29.10;99.90
19224;DHT22;9746;47.180;9.776;2023-10-08T13:09:41;28.90;99.90
19224;DHT22;9746;47.180;9.776;2023-10-08T13:12:11;28.70;99.90
19224;DHT22;9746;47.180;9.776;2023-10-08T13:14:41;28.40;99.90
19224;DHT22;9746;47.180;9.776;2023-10-08T13:17:12;28.10;99.90
19224;DHT22;9746;47.180;9.776;2023-10-08T13:19:42;28.00;99.90
19224;DHT22;9746;47.180;9.776;2023-10-08T13:22:11;27.90;99.90
19224;DHT22;9746;47.180;9.776;2023-10-08T13:24:45;27.80;99.90
19224;DHT22;9746;47.180;9.776;2023-10-08T13:27:14;27.80;99.90
19224;DHT22;9746;47.180;9.776;2023-10-08T13:29:42;27.60;99.90
19224;DHT22;9746;47.180;9.776;2023-10-08T13:32:09;27.50;99.90
19224;DHT22;9746;47.180;9.776;2023-10-08T13:34:44;27.20;99.90
19224;DHT22;9746;47.180;9.776;2023-10-08T13:37:12;26.90;99.90
19224;DHT22;9746;47.180;9.776;2023-10-08T13:39:43;26.90;99.90
19224;DHT22;9746;47.180;9.776;2023-10-08T13:42:12;27.00;99.90
19224;DHT22;9746;47.180;9.776;2023-10-08T13:44:48;27.60;99.90
19224;DHT22;9746;47.180;9.776;2023-10-08T13:47:21;28.50;99.90
19224;DHT22;9746;47.180;9.776;2023-10-08T13:49:53;29.30;99.90
19224;DHT22;9746;47.180;9.776;2023-10-08T13:52:20;30.20;99.90
19224;DHT22;9746;47.180;9.776;2023-10-08T13:54:52;30.60;99.90
19224;DHT22;9746;47.180;9.776;2023-10-08T13:57:20;30.90;99.90
19224;DHT22;9746;47.180;9.776;2023-10-08T13:59:48;31.40;99.90
19224;DHT22;9746;47.180;9.776;2023-10-08T14:02:16;31.90;99.90
19224;DHT22;9746;47.180;9.776;2023-10-08T14:05:06;32.60;99.90
19224;DHT22;9746;47.180;9.776;2023-10-08T14:07:50;33.50;99.90
19224;DHT22;9746;47.180;9.776;2023-10-08T14:10:19;33.20;99.90
19224;DHT22;9746;47.180;9.776;2023-10-08T14:16:08;32.00;99.90
19224;DHT22;9746;47.180;9.776;2023-10-08T14:22:08;30.70;99.90
19224;DHT22;9746;47.180;9.776;2023-10-08T14:28:23;30.10;99.90
19224;DHT22;9746;47.180;9.776;2023-10-08T14:31:07;29.70;99.90
19224;DHT22;9746;47.180;9.776;2023-10-08T14:36:56;29.10;99.90
19224;DHT22;9746;47.180;9.776;2023-10-08T14:43:03;29.00;99.90
19224;DHT22;9746;47.180;9.776;2023-10-08T14:45:32;28.80;99.90
19224;DHT22;9746;47.180;9.776;2023-10-08T14:48:02;28.50;99.90
19224;DHT22;9746;47.180;9.776;2023-10-08T14:50:32;28.10;99.90
19224;DHT22;9746;47.180;9.776;2023-10-08T14:56:21;27.80;99.90
19224;DHT22;9746;47.180;9.776;2023-10-08T15:02:13;28.60;99.90
19224;DHT22;9746;47.180;9.776;2023-10-08T15:08:02;28.50;99.90
19224;DHT22;9746;47.180;9.776;2023-10-08T15:10:35;28.30;99.90
19224;DHT22;9746;47.180;9.776;2023-10-08T15:13:03;28.00;99.90
19224;DHT22;9746;47.180;9.776;2023-10-08T15:15:32;27.90;99.90
19224;DHT22;9746;47.180;9.776;2023-10-08T15:18:02;27.80;99.90
19224;DHT22;9746;47.180;9.776;2023-10-08T15:20:29;27.70;99.90
19224;DHT22;9746;47.180;9.776;2023-10-08T15:22:58;27.20;99.90
19224;DHT22;9746;47.180;9.776;2023-10-08T15:25:25;27.00;99.90
19224;DHT22;9746;47.180;9.776;2023-10-08T15:27:52;26.70;99.90
19224;DHT22;9746;47.180;9.776;2023-10-08T15:33:43;26.10;99.90
19224;DHT22;9746;47.180;9.776;2023-10-08T15:36:11;25.60;99.90
19224;DHT22;9746;47.180;9.776;2023-10-08T15:42:00;25.00;99.90
19224;DHT22;9746;47.180;9.776;2023-10-08T15:47:50;24.70;99.90
19224;DHT22;9746;47.180;9.776;2023-10-08T15:53:40;24.30;99.90
19224;DHT22;9746;47.180;9.776;2023-10-08T15:56:08;24.20;99.90
19224;DHT22;9746;47.180;9.776;2023-10-08T15:58:47;24.10;99.90
19224;DHT22;9746;47.180;9.776;2023-10-08T16:01:16;24.00;99.90
19224;DHT22;9746;47.180;9.776;2023-10-08T16:04:00;24.00;99.90
19224;DHT22;9746;47.180;9.776;2023-10-08T16:06:28;23.90;99.90
19224;DHT22;9746;47.180;9.776;2023-10-08T16:09:01;23.80;99.90
19224;DHT22;9746;47.180;9.776;2023-10-08T16:11:30;23.70;99.90
19224;DHT22;9746;47.180;9.776;2023-10-08T16:14:10;23.60;99.90
19224;DHT22;9746;47.180;9.776;2023-10-08T16:16:38;23.50;99.90
19224;DHT22;9746;47.180;9.776;2023-10-08T16:19:11;23.40;99.90
19224;DHT22;9746;47.180;9.776;2023-10-08T16:21:38;23.20;99.90
19224;DHT22;9746;47.180;9.776;2023-10-08T16:24:16;22.90;99.90
19224;DHT22;9746;47.180;9.776;2023-10-08T16:26:45;22.60;99.90
19224;DHT22;9746;47.180;9.776;2023-10-08T16:29:29;22.50;99.90
19224;DHT22;9746;47.180;9.776;2023-10-08T16:32:03;22.40;99.90
19224;DHT22;9746;47.180;9.776;2023-10-08T16:34:32;22.30;99.90
19224;DHT22;9746;47.180;9.776;2023-10-08T16:37:00;22.20;99.90
19224;DHT22;9746;47.180;9.776;2023-10-08T16:39:41;22.00;99.90
19224;DHT22;9746;47.180;9.776;2023-10-08T16:42:09;21.80;99.90
19224;DHT22;9746;47.180;9.776;2023-10-08T16:44:38;21.50;99.90
19224;DHT22;9746;47.180;9.776;2023-10-08T16:47:06;21.30;99.90
19224;DHT22;9746;47.180;9.776;2023-10-08T16:52:56;20.70;99.90
19224;DHT22;9746;47.180;9.776;2023-10-08T16:58:31;20.20;99.90
19224;DHT22;9746;47.180;9.776;2023-10-08T17:01:06;20.00;99.90
19224;DHT22;9746;47.180;9.776;2023-10-08T17:03:35;19.90;99.90
19224;DHT22;9746;47.180;9.776;2023-10-08T17:06:03;19.80;99.90
19224;DHT22;9746;47.180;9.776;2023-10-08T17:08:33;19.70;99.90
19224;DHT22;9746;47.180;9.776;2023-10-08T17:14:19;19.40;99.90
19224;DHT22;9746;47.180;9.776;2023-10-08T17:16:47;19.20;99.90
19224;DHT22;9746;47.180;9.776;2023-10-08T17:19:25;19.10;99.90
19224;DHT22;9746;47.180;9.776;2023-10-08T17:21:52;19.00;99.90
19224;DHT22;9746;47.180;9.776;2023-10-08T17:24:33;19.00;99.90
19224;DHT22;9746;47.180;9.776;2023-10-08T17:27:01;19.10;99.90
19224;DHT22;9746;47.180;9.776;2023-10-08T17:29:34;19.10;99.90
19224;DHT22;9746;47.180;9.776;2023-10-08T17:32:01;19.20;99.90
19224;DHT22;9746;47.180;9.776;2023-10-08T17:34:29;19.30;99.90
19224;DHT22;9746;47.180;9.776;2023-10-08T17:36:57;19.30;99.90
19224;DHT22;9746;47.180;9.776;2023-10-08T17:39:29;19.40;99.90
19224;DHT22;9746;47.180;9.776;2023-10-08T17:42:04;19.40;99.90
19224;DHT22;9746;47.180;9.776;2023-10-08T17:44:38;19.40;99.90
19224;DHT22;9746;47.180;9.776;2023-10-08T17:47:05;19.40;99.90
19224;DHT22;9746;47.180;9.776;2023-10-08T17:49:35;19.30;99.90
19224;DHT22;9746;47.180;9.776;2023-10-08T17:52:04;19.30;99.90
19224;DHT22;9746;47.180;9.776;2023-10-08T17:54:35;19.30;99.90
19224;DHT22;9746;47.180;9.776;2023-10-08T17:57:03;19.40;99.90
19224;DHT22;9746;47.180;9.776;2023-10-08T17:59:41;19.30;99.90
19224;DHT22;9746;47.180;9.776;2023-10-08T18:02:08;19.40;99.90
19224;DHT22;9746;47.180;9.776;2023-10-08T18:04:37;19.30;99.90
19224;DHT22;9746;47.180;9.776;2023-10-08T18:07:04;19.40;99.90
19224;DHT22;9746;47.180;9.776;2023-10-08T18:09:34;19.40;99.90
19224;DHT22;9746;47.180;9.776;2023-10-08T18:12:02;19.40;99.90
19224;DHT22;9746;47.180;9.776;2023-10-08T18:14:30;19.40;99.90
19224;DHT22;9746;47.180;9.776;2023-10-08T18:16:58;19.40;99.90
19224;DHT22;9746;47.180;9.776;2023-10-08T18:19:51;19.30;99.90
19224;DHT22;9746;47.180;9.776;2023-10-08T18:22:19;19.30;99.90
19224;DHT22;9746;47.180;9.776;2023-10-08T18:24:51;19.20;99.90
19224;DHT22;9746;47.180;9.776;2023-10-08T18:27:19;19.20;99.90
19224;DHT22;9746;47.180;9.776;2023-10-08T18:29:47;19.20;99.90
19224;DHT22;9746;47.180;9.776;2023-10-08T18:32:16;19.10;99.90
19224;DHT22;9746;47.180;9.776;2023-10-08T18:35:10;19.10;99.90
19224;DHT22;9746;47.180;9.776;2023-10-08T18:37:39;19.10;99.90
19224;DHT22;9746;47.180;9.776;2023-10-08T18:40:09;19.00;99.90
19224;DHT22;9746;47.180;9.776;2023-10-08T18:42:39;18.90;99.90
19224;DHT22;9746;47.180;9.776;2023-10-08T18:45:13;18.90;99.90
19224;DHT22;9746;47.180;9.776;2023-10-08T18:47:44;18.80;99.90
19224;DHT22;9746;47.180;9.776;2023-10-08T18:50:18;18.80;99.90
19224;DHT22;9746;47.180;9.776;2023-10-08T18:52:48;18.80;99.90
19224;DHT22;9746;47.180;9.776;2023-10-08T18:55:23;18.80;99.90
19224;DHT22;9746;47.180;9.776;2023-10-08T18:57:50;18.80;99.90
19224;DHT22;9746;47.180;9.776;2023-10-08T19:00:29;18.80;99.90
19224;DHT22;9746;47.180;9.776;2023-10-08T19:03:00;18.80;99.90
19224;DHT22;9746;47.180;9.776;2023-10-08T19:05:39;18.80;99.90
19224;DHT22;9746;47.180;9.776;2023-10-08T19:08:06;18.70;99.90
19224;DHT22;9746;47.180;9.776;2023-10-08T19:10:41;18.80;99.90
19224;DHT22;9746;47.180;9.776;2023-10-08T19:13:09;18.70;99.90
19224;DHT22;9746;47.180;9.776;2023-10-08T19:15:36;18.70;99.90
19224;DHT22;9746;47.180;9.776;2023-10-08T19:18:07;18.70;99.90
19224;DHT22;9746;47.180;9.776;2023-10-08T19:20:47;18.60;99.90
19224;DHT22;9746;47.180;9.776;2023-10-08T19:23:15;18.60;99.90
19224;DHT22;9746;47.180;9.776;2023-10-08T19:26:12;18.50;99.90
19224;DHT22;9746;47.180;9.776;2023-10-08T19:28:44;18.50;99.90
19224;DHT22;9746;47.180;9.776;2023-10-08T19:31:23;18.50;99.90
19224;DHT22;9746;47.180;9.776;2023-10-08T19:33:53;18.50;99.90
19224;DHT22;9746;47.180;9.776;2023-10-08T19:36:22;18.40;99.90
19224;DHT22;9746;47.180;9.776;2023-10-08T19:38:50;18.40;99.90
19224;DHT22;9746;47.180;9.776;2023-10-08T19:41:19;18.30;99.90
19224;DHT22;9746;47.180;9.776;2023-10-08T19:43:47;18.20;99.90
19224;DHT22;9746;47.180;9.776;2023-10-08T19:46:24;18.20;99.90